Time;durP1;ratioP1;P1;durP2;ratioP2;P2;SDS_P1;SDS_P2;PMS_P1;PMS_P2;Temp;Humidity;BMP_temperature;BMP_pressure;BME280_temperature;BME280_humidity;BME280_pressure;Samples;Min_cycle;Max_cycle;Signal;HPM_P1;HPM_P2
2021/11/04 00:00:43;;;;;;;28.45;10.00;;;7.80;68.40;;;;;;5024873;28;20022;-64
2021/11/04 00:03:09;;;;;;;24.40;9.80;;;7.70;68.50;;;;;;5019375;28;20145;-64
2021/11/04 00:05:36;;;;;;;18.75;9.95;;;7.70;68.70;;;;;;5015678;28;20016;-64
2021/11/04 00:08:05;;;;;;;19.38;9.40;;;7.70;68.90;;;;;;5016682;28;20030;-64
2021/11/04 00:10:33;;;;;;;30.83;9.77;;;7.70;68.90;;;;;;5026268;28;20180;-64
2021/11/04 00:12:59;;;;;;;18.05;9.73;;;7.70;69.00;;;;;;5019470;28;20516;-64
2021/11/04 00:15:25;;;;;;;27.10;10.13;;;7.60;69.00;;;;;;5022466;28;20029;-64
2021/11/04 00:17:51;;;;;;;79.78;11.02;;;7.60;69.00;;;;;;5016581;28;20044;-64
2021/11/04 00:20:17;;;;;;;58.35;10.25;;;7.60;69.00;;;;;;5019222;28;20581;-64
2021/11/04 00:22:45;;;;;;;64.30;10.68;;;7.60;69.10;;;;;;5025675;28;20033;-64
2021/11/04 00:25:10;;;;;;;37.10;10.80;;;7.60;69.30;;;;;;5028958;28;20361;-64
2021/11/04 00:27:36;;;;;;;33.95;11.40;;;7.50;69.10;;;;;;5029149;28;20044;-64
2021/11/04 00:30:04;;;;;;;31.63;11.35;;;7.50;69.10;;;;;;5030050;28;20024;-64
2021/11/04 00:32:30;;;;;;;17.42;11.32;;;7.40;69.10;;;;;;5016767;28;20041;-64
2021/11/04 00:34:56;;;;;;;20.90;11.43;;;7.40;69.10;;;;;;5030845;28;20029;-64
2021/11/04 00:37:21;;;;;;;21.17;11.65;;;7.40;69.20;;;;;;5020849;28;20092;-64
2021/11/04 00:39:47;;;;;;;18.30;11.23;;;7.30;69.30;;;;;;5027303;28;20026;-64
2021/11/04 00:42:13;;;;;;;13.38;9.68;;;7.30;69.40;;;;;;5029828;28;20508;-64
2021/11/04 00:44:39;;;;;;;19.02;9.95;;;7.30;69.40;;;;;;5029525;28;20017;-64
2021/11/04 00:47:05;;;;;;;24.08;12.85;;;7.30;69.40;;;;;;5030667;28;20048;-64
2021/11/04 00:49:31;;;;;;;27.67;12.10;;;7.30;69.10;;;;;;5029419;28;20075;-64
2021/11/04 00:51:56;;;;;;;27.95;11.18;;;7.20;69.10;;;;;;5028957;28;20045;-64
2021/11/04 00:54:22;;;;;;;30.42;10.65;;;7.20;69.20;;;;;;5029536;28;20108;-64
2021/11/04 00:56:48;;;;;;;23.20;10.95;;;7.20;69.40;;;;;;5029196;28;20052;-64
2021/11/04 00:59:14;;;;;;;28.13;10.65;;;7.20;69.70;;;;;;5029843;28;20026;-64
2021/11/04 01:01:39;;;;;;;25.52;11.10;;;7.20;69.90;;;;;;5030351;28;20076;-64
2021/11/04 01:04:05;;;;;;;31.25;10.85;;;7.20;70.10;;;;;;5029264;28;20038;-64
2021/11/04 01:06:31;;;;;;;19.70;9.65;;;7.30;70.30;;;;;;5025798;28;20519;-64
2021/11/04 01:08:57;;;;;;;26.90;11.50;;;7.30;70.30;;;;;;5028845;28;20488;-64
2021/11/04 01:11:24;;;;;;;23.27;13.13;;;7.40;71.20;;;;;;5029185;28;20021;-64
2021/11/04 01:13:50;;;;;;;19.58;12.30;;;7.30;70.20;;;;;;5030773;28;20084;-64
2021/11/04 01:16:17;;;;;;;19.20;11.93;;;7.30;70.20;;;;;;5028831;28;20032;-64
2021/11/04 01:18:43;;;;;;;15.73;11.15;;;7.20;70.40;;;;;;5024528;28;20029;-64
2021/11/04 01:21:10;;;;;;;17.63;11.27;;;7.30;70.70;;;;;;5027531;28;20130;-64
2021/11/04 01:23:37;;;;;;;17.08;10.40;;;7.30;70.90;;;;;;5029387;28;20030;-64
2021/11/04 01:26:03;;;;;;;14.65;9.88;;;7.30;70.90;;;;;;5024488;28;20127;-64
2021/11/04 01:28:29;;;;;;;19.20;10.20;;;7.40;70.90;;;;;;5017974;28;20484;-64
2021/11/04 01:30:55;;;;;;;15.55;10.10;;;7.40;70.90;;;;;;5018094;28;20026;-64
2021/11/04 01:33:21;;;;;;;15.98;11.25;;;7.40;70.90;;;;;;5020041;28;20033;-64
2021/11/04 01:35:47;;;;;;;16.15;10.60;;;7.50;71.00;;;;;;5028461;28;20026;-64
2021/11/04 01:38:13;;;;;;;15.18;10.68;;;7.50;71.10;;;;;;5029301;28;20033;-64
2021/11/04 01:40:40;;;;;;;15.40;11.10;;;7.50;71.30;;;;;;5030255;28;20116;-64
2021/11/04 01:43:06;;;;;;;16.50;11.55;;;7.50;71.50;;;;;;5021189;28;20025;-64
2021/11/04 01:45:32;;;;;;;14.82;11.23;;;7.50;71.80;;;;;;5019140;28;20026;-64
2021/11/04 01:48:01;;;;;;;14.30;10.80;;;7.50;72.00;;;;;;5027606;28;20428;-64
2021/11/04 01:50:27;;;;;;;14.00;10.43;;;7.50;72.20;;;;;;5028184;28;20091;-64
2021/11/04 01:52:54;;;;;;;13.73;10.48;;;7.50;72.30;;;;;;5029997;28;20033;-64
2021/11/04 01:55:27;;;;;;;15.63;10.40;;;7.50;72.40;;;;;;5028329;28;20021;-64
2021/11/04 01:57:53;;;;;;;13.35;10.48;;;7.50;72.30;;;;;;5029071;28;20056;-64
2021/11/04 02:00:29;;;;;;;14.15;9.77;;;7.50;72.10;;;;;;5029992;28;20060;-64
2021/11/04 02:03:20;;;;;;;14.90;10.57;;;7.40;72.20;;;;;;5031734;28;20057;-64
2021/11/04 02:06:21;;;;;;;14.80;9.90;;;7.40;72.40;;;;;;5026086;28;20112;-64
2021/11/04 02:09:07;;;;;;;14.95;10.10;;;7.30;72.40;;;;;;5029693;28;20528;-64
2021/11/04 02:11:52;;;;;;;18.80;11.45;;;7.20;72.70;;;;;;5022400;28;20135;-64
2021/11/04 02:14:45;;;;;;;11.88;9.27;;;7.10;72.70;;;;;;5027245;28;20455;-64
2021/11/04 02:17:12;;;;;;;12.25;9.40;;;7.10;72.50;;;;;;5020257;28;20049;-63
2021/11/04 02:19:47;;;;;;;12.85;9.35;;;7.00;72.60;;;;;;5028797;28;20120;-64
2021/11/04 02:22:51;;;;;;;12.73;9.30;;;7.00;73.00;;;;;;5029156;28;20029;-64
2021/11/04 02:25:25;;;;;;;13.00;9.05;;;6.90;73.20;;;;;;5028929;28;20037;-64
2021/11/04 02:27:59;;;;;;;11.40;9.20;;;6.90;73.20;;;;;;5029459;28;20025;-64
2021/11/04 02:30:27;;;;;;;12.05;8.90;;;6.80;73.40;;;;;;5026789;28;20637;-64
2021/11/04 02:32:55;;;;;;;11.82;8.80;;;6.80;73.60;;;;;;5029147;28;20698;-64
2021/11/04 02:35:22;;;;;;;12.65;9.13;;;6.80;73.80;;;;;;5029337;28;20030;-64
2021/11/04 02:37:50;;;;;;;11.15;8.40;;;6.80;74.00;;;;;;5030897;28;20041;-64
2021/11/04 02:40:16;;;;;;;12.98;8.43;;;6.80;74.20;;;;;;5029254;28;20040;-64
2021/11/04 02:42:43;;;;;;;11.45;8.73;;;6.80;74.30;;;;;;5029825;28;20029;-64
2021/11/04 02:45:10;;;;;;;11.30;8.45;;;6.80;74.50;;;;;;5031476;28;20064;-64
2021/11/04 02:47:37;;;;;;;10.93;8.23;;;6.80;74.70;;;;;;5031452;28;20029;-64
2021/11/04 02:50:05;;;;;;;12.20;8.27;;;6.80;75.00;;;;;;5026580;28;20045;-64
2021/11/04 02:52:31;;;;;;;10.68;7.88;;;6.80;75.20;;;;;;5031818;28;20068;-64
2021/11/04 02:55:03;;;;;;;12.57;7.82;;;6.80;75.30;;;;;;5031794;28;20092;-64
2021/11/04 02:57:30;;;;;;;12.93;8.55;;;6.80;75.30;;;;;;5023722;28;20041;-64
2021/11/04 02:59:57;;;;;;;11.70;8.13;;;6.80;75.80;;;;;;5026219;28;20106;-64
2021/11/04 03:02:23;;;;;;;11.10;7.82;;;6.80;75.90;;;;;;5031070;28;20056;-63
2021/11/04 03:04:49;;;;;;;11.75;7.80;;;6.90;75.90;;;;;;5026247;28;20025;-64
2021/11/04 03:07:15;;;;;;;10.70;7.63;;;6.90;75.90;;;;;;5030951;28;20049;-64
2021/11/04 03:09:41;;;;;;;9.50;6.88;;;6.90;75.90;;;;;;5031447;28;20021;-63
2021/11/04 03:12:08;;;;;;;11.38;7.45;;;6.90;75.80;;;;;;5030890;28;20095;-64
2021/11/04 03:14:34;;;;;;;11.10;7.10;;;6.80;76.00;;;;;;5016952;28;20101;-64
2021/11/04 03:17:02;;;;;;;12.07;7.43;;;6.90;76.50;;;;;;5031754;28;20109;-64
2021/11/04 03:19:29;;;;;;;10.88;7.55;;;6.90;76.50;;;;;;5019767;28;20497;-64
2021/11/04 03:21:56;;;;;;;12.45;8.15;;;6.90;76.70;;;;;;5028922;28;20063;-64
2021/11/04 03:24:25;;;;;;;10.02;7.28;;;6.90;76.80;;;;;;5030586;28;20026;-64
2021/11/04 03:27:10;;;;;;;11.13;7.15;;;6.90;77.00;;;;;;5030881;28;20029;-64
2021/11/04 03:29:39;;;;;;;9.70;7.25;;;6.90;77.10;;;;;;5016307;28;20534;-64
2021/11/04 03:32:12;;;;;;;11.70;7.55;;;6.90;77.10;;;;;;5015525;28;20042;-64
2021/11/04 03:34:38;;;;;;;11.20;7.43;;;6.90;77.10;;;;;;5023264;28;20022;-64
2021/11/04 03:37:06;;;;;;;8.77;6.78;;;6.90;77.10;;;;;;5029984;28;20021;-64
2021/11/04 03:39:32;;;;;;;8.68;6.47;;;6.80;77.50;;;;;;5030555;28;20104;-64
2021/11/04 03:41:59;;;;;;;9.38;6.45;;;6.80;78.50;;;;;;5030620;28;20025;-64
2021/11/04 03:44:26;;;;;;;9.73;7.20;;;6.70;77.30;;;;;;5016905;28;20602;-64
2021/11/04 03:46:53;;;;;;;10.02;6.25;;;6.70;77.50;;;;;;5018459;28;20401;-64
2021/11/04 03:49:21;;;;;;;8.52;6.07;;;6.70;77.60;;;;;;5028875;28;20040;-64
2021/11/04 03:51:49;;;;;;;10.63;6.15;;;6.70;77.80;;;;;;5030811;28;20029;-64
2021/11/04 03:54:18;;;;;;;9.73;6.30;;;6.70;77.80;;;;;;5028874;28;20107;-64
2021/11/04 03:56:44;;;;;;;9.98;6.22;;;6.70;77.90;;;;;;5029129;28;20024;-64
2021/11/04 03:59:10;;;;;;;7.88;5.55;;;6.70;77.90;;;;;;5016494;28;20065;-63
2021/11/04 04:01:36;;;;;;;9.20;6.30;;;6.70;78.00;;;;;;5031061;28;20516;-64
2021/11/04 04:04:03;;;;;;;8.60;5.68;;;6.70;78.00;;;;;;5029551;28;20033;-64
2021/11/04 04:06:29;;;;;;;9.50;5.85;;;6.70;78.10;;;;;;5029915;28;20029;-64
2021/11/04 04:08:56;;;;;;;9.07;5.88;;;6.70;78.20;;;;;;5030188;28;20030;-64
2021/11/04 04:11:23;;;;;;;11.10;5.88;;;6.80;78.20;;;;;;5029789;28;20053;-64
2021/11/04 04:13:50;;;;;;;8.95;5.80;;;6.80;78.50;;;;;;5021377;28;20043;-64
2021/11/04 04:16:17;;;;;;;10.77;5.40;;;6.80;78.30;;;;;;5025881;28;20018;-64
2021/11/04 04:18:43;;;;;;;7.97;5.25;;;6.80;78.20;;;;;;5029391;28;20048;-63
2021/11/04 04:21:09;;;;;;;7.88;5.18;;;6.80;78.20;;;;;;5029508;28;20029;-64
2021/11/04 04:23:35;;;;;;;9.10;5.78;;;6.80;78.20;;;;;;5021440;28;20096;-64
2021/11/04 04:26:00;;;;;;;8.80;5.32;;;6.80;78.10;;;;;;5030772;28;20038;-64
2021/11/04 04:28:26;;;;;;;7.95;5.13;;;6.90;78.10;;;;;;5029439;28;20017;-64
2021/11/04 04:30:52;;;;;;;7.97;4.80;;;6.90;78.10;;;;;;5025845;28;20038;-63
2021/11/04 04:33:18;;;;;;;8.68;5.50;;;7.00;78.10;;;;;;5029403;28;20049;-64
2021/11/04 04:35:43;;;;;;;8.10;5.35;;;7.00;78.50;;;;;;5030067;28;20049;-64
2021/11/04 04:38:09;;;;;;;9.50;5.20;;;7.10;78.30;;;;;;5015260;28;20117;-64
2021/11/04 04:40:35;;;;;;;8.27;5.22;;;7.10;78.30;;;;;;5030490;28;20530;-64
2021/11/04 04:43:01;;;;;;;6.80;4.60;;;7.10;78.30;;;;;;5024512;28;20084;-64
2021/11/04 04:45:27;;;;;;;6.20;4.35;;;7.20;78.20;;;;;;5026842;28;20432;-63
2021/11/04 04:47:53;;;;;;;7.55;4.53;;;7.20;79.00;;;;;;5027142;28;20021;-64
2021/11/04 04:50:18;;;;;;;6.20;4.45;;;7.20;78.00;;;;;;5016893;28;20033;-64
2021/11/04 04:52:44;;;;;;;8.75;4.55;;;7.20;78.00;;;;;;5024843;28;20056;-64
2021/11/04 04:55:10;;;;;;;7.22;4.60;;;7.20;78.10;;;;;;5027936;28;20034;-64
2021/11/04 04:57:36;;;;;;;8.98;4.63;;;7.10;78.20;;;;;;5025268;28;20029;-64
2021/11/04 05:00:11;;;;;;;7.03;4.65;;;7.10;78.20;;;;;;5018520;28;20025;-64
2021/11/04 05:02:37;;;;;;;10.45;5.20;;;7.10;78.40;;;;;;5025928;28;20045;-64
2021/11/04 05:05:03;;;;;;;6.78;4.75;;;7.10;78.70;;;;;;5030649;28;20026;-63
2021/11/04 05:07:29;;;;;;;10.73;5.22;;;7.00;78.60;;;;;;5029786;28;20030;-63
2021/11/04 05:09:54;;;;;;;8.65;5.63;;;7.00;78.80;;;;;;5028129;28;20017;-63
2021/11/04 05:12:20;;;;;;;7.63;5.10;;;6.90;78.90;;;;;;5027702;28;20385;-64
2021/11/04 05:14:46;;;;;;;9.52;4.88;;;6.90;79.00;;;;;;5017478;28;20072;-63
2021/11/04 05:17:12;;;;;;;7.13;4.70;;;6.80;79.10;;;;;;5024525;28;20041;-64
2021/11/04 05:19:38;;;;;;;6.65;4.35;;;6.80;79.10;;;;;;5022615;28;20056;-63
2021/11/04 05:22:04;;;;;;;7.60;4.68;;;6.80;79.10;;;;;;5028689;28;20111;-64
2021/11/04 05:24:34;;;;;;;6.55;4.55;;;6.70;79.10;;;;;;5028664;28;20489;-64
2021/11/04 05:27:01;;;;;;;6.40;4.38;;;6.70;79.00;;;;;;5028924;28;20516;-64
2021/11/04 05:29:27;;;;;;;7.32;4.00;;;6.60;79.10;;;;;;5029518;28;20033;-64
2021/11/04 05:31:53;;;;;;;7.32;3.95;;;6.60;79.10;;;;;;5029805;28;20018;-63
2021/11/04 05:34:19;;;;;;;9.68;5.05;;;6.60;79.10;;;;;;5024629;28;20029;-64
2021/11/04 05:36:45;;;;;;;7.70;5.72;;;6.50;79.10;;;;;;5032426;28;20045;-63
2021/11/04 05:39:10;;;;;;;8.15;4.60;;;6.50;79.10;;;;;;5032727;28;20026;-63
2021/11/04 05:41:36;;;;;;;6.78;4.15;;;6.50;79.10;;;;;;5028293;28;20026;-64
2021/11/04 05:44:02;;;;;;;6.82;4.28;;;6.50;79.20;;;;;;5034554;28;20038;-64
2021/11/04 05:46:28;;;;;;;6.07;3.80;;;6.40;79.10;;;;;;5021342;28;20030;-64
2021/11/04 05:48:54;;;;;;;11.40;5.80;;;6.40;79.00;;;;;;5021212;28;20040;-64
2021/11/04 05:51:19;;;;;;;8.55;4.70;;;6.30;78.80;;;;;;5029658;28;20029;-64
2021/11/04 05:53:45;;;;;;;6.53;3.83;;;6.30;78.70;;;;;;5032374;28;20492;-64
2021/11/04 05:56:11;;;;;;;6.93;4.28;;;6.30;78.60;;;;;;5032598;28;20030;-64
2021/11/04 05:58:36;;;;;;;4.70;3.38;;;6.20;78.50;;;;;;5031833;28;20034;-64
2021/11/04 06:01:03;;;;;;;5.93;3.63;;;6.20;78.50;;;;;;5025129;28;20014;-64
2021/11/04 06:03:28;;;;;;;7.45;3.47;;;6.20;78.40;;;;;;5026253;28;20171;-63
2021/11/04 06:05:54;;;;;;;10.52;3.03;;;6.10;78.30;;;;;;5032468;28;20100;-64
2021/11/04 06:08:20;;;;;;;7.57;3.80;;;6.10;78.10;;;;;;5032935;28;20040;-64
2021/11/04 06:10:46;;;;;;;5.38;2.80;;;6.10;78.10;;;;;;5018237;28;20038;-64
2021/11/04 06:13:12;;;;;;;6.60;3.50;;;6.00;78.00;;;;;;5029900;28;20495;-64
2021/11/04 06:15:37;;;;;;;10.77;4.05;;;6.00;78.00;;;;;;5031545;28;20044;-64
2021/11/04 06:18:03;;;;;;;6.32;4.10;;;6.00;78.60;;;;;;5031138;28;20041;-64
2021/11/04 06:20:29;;;;;;;8.10;5.18;;;5.90;79.20;;;;;;5031902;28;20110;-64
2021/11/04 06:22:56;;;;;;;7.55;5.05;;;5.90;79.80;;;;;;5032609;28;20389;-65
2021/11/04 06:25:22;;;;;;;8.57;4.60;;;5.90;81.10;;;;;;5031704;28;20025;-64
2021/11/04 06:27:47;;;;;;;9.13;4.95;;;5.90;81.30;;;;;;5031974;28;20044;-64
2021/11/04 06:30:13;;;;;;;7.80;4.60;;;5.90;81.40;;;;;;5031296;28;20100;-64
2021/11/04 06:32:39;;;;;;;6.15;3.80;;;5.90;81.40;;;;;;5026325;28;20031;-65
2021/11/04 06:35:08;;;;;;;6.57;3.97;;;5.90;81.30;;;;;;5031789;28;20026;-64
2021/11/04 06:37:35;;;;;;;7.47;4.60;;;6.00;81.20;;;;;;5025172;28;20037;-64
2021/11/04 06:40:02;;;;;;;7.72;4.75;;;6.00;81.20;;;;;;5024728;28;20022;-64
2021/11/04 06:42:28;;;;;;;8.23;4.22;;;5.90;81.30;;;;;;5028388;28;20050;-64
2021/11/04 06:44:53;;;;;;;9.70;5.13;;;6.00;81.40;;;;;;5028527;28;20033;-64
2021/11/04 06:47:30;;;;;;;8.13;5.03;;;6.00;81.50;;;;;;5019046;28;20083;-64
2021/11/04 06:49:58;;;;;;;8.75;5.30;;;6.00;81.50;;;;;;5031677;28;20029;-64
2021/11/04 06:52:26;;;;;;;9.40;4.80;;;6.00;81.70;;;;;;5030402;28;20045;-64
2021/11/04 06:54:58;;;;;;;8.02;5.05;;;6.00;81.80;;;;;;5030850;28;20068;-64
2021/11/04 06:57:26;;;;;;;9.27;4.95;;;6.00;81.70;;;;;;5030140;28;20024;-64
2021/11/04 06:59:56;;;;;;;6.80;4.30;;;6.00;81.70;;;;;;5029610;28;20030;-64
2021/11/04 07:02:35;;;;;;;8.02;4.97;;;6.00;81.70;;;;;;5026441;28;20100;-64
2021/11/04 07:05:02;;;;;;;8.77;5.13;;;6.10;81.60;;;;;;5031966;28;20100;-64
2021/11/04 07:07:31;;;;;;;8.65;5.20;;;6.10;81.40;;;;;;5020012;28;20056;-64
2021/11/04 07:09:59;;;;;;;8.35;5.15;;;6.10;81.20;;;;;;5026562;28;20435;-64
2021/11/04 07:12:26;;;;;;;9.68;5.13;;;6.10;81.00;;;;;;5031863;28;20025;-64
2021/11/04 07:14:52;;;;;;;8.02;5.82;;;6.10;80.90;;;;;;5031230;28;20021;-64
2021/11/04 07:17:18;;;;;;;8.00;5.32;;;6.10;80.90;;;;;;5031511;28;20033;-63
2021/11/04 07:19:47;;;;;;;8.68;4.82;;;6.10;80.80;;;;;;5032491;28;20025;-64
2021/11/04 07:22:33;;;;;;;7.65;5.20;;;6.20;80.70;;;;;;5022664;28;20507;-64
2021/11/04 07:25:09;;;;;;;8.18;4.55;;;6.30;80.50;;;;;;5027339;28;20021;-63
2021/11/04 07:27:56;;;;;;;9.30;5.25;;;6.40;79.70;;;;;;5031157;28;20032;-63
2021/11/04 07:30:23;;;;;;;25.77;13.93;;;6.40;79.50;;;;;;5029009;28;20053;-64
2021/11/04 07:32:58;;;;;;;9.98;5.85;;;6.40;79.40;;;;;;5029551;28;20033;-63
2021/11/04 07:35:33;;;;;;;6.60;4.38;;;6.50;79.40;;;;;;5028931;28;20021;-63
2021/11/04 07:37:59;;;;;;;12.88;4.60;;;6.50;79.20;;;;;;5031777;28;20025;-64
2021/11/04 07:40:29;;;;;;;9.50;4.55;;;6.60;79.00;;;;;;5030963;28;20099;-64
2021/11/04 07:42:55;;;;;;;8.73;3.75;;;6.60;78.90;;;;;;5030866;28;20036;-64
2021/11/04 07:45:22;;;;;;;19.10;4.40;;;6.60;78.70;;;;;;5028868;28;20064;-64
2021/11/04 07:47:48;;;;;;;11.18;3.75;;;6.60;78.50;;;;;;5029140;28;20040;-64
2021/11/04 07:50:23;;;;;;;17.08;3.70;;;6.60;78.50;;;;;;5030826;28;20087;-64
2021/11/04 07:52:49;;;;;;;15.55;4.85;;;6.60;78.40;;;;;;5020834;28;20061;-64
2021/11/04 07:55:16;;;;;;;7.05;4.47;;;6.70;78.00;;;;;;5029991;28;20108;-64
2021/11/04 07:57:42;;;;;;;6.95;4.35;;;8.40;75.30;;;;;;5030460;28;20499;-64
2021/11/04 08:00:17;;;;;;;5.22;3.53;;;9.80;71.40;;;;;;5031152;28;20033;-64
2021/11/04 08:02:43;;;;;;;6.53;3.70;;;11.10;68.00;;;;;;5015632;28;20136;-64
2021/11/04 08:05:11;;;;;;;6.90;3.78;;;12.30;65.40;;;;;;5030619;28;20160;-64
2021/11/04 08:07:38;;;;;;;5.38;3.55;;;13.40;63.00;;;;;;5017513;28;20596;-64
2021/11/04 08:10:06;;;;;;;6.97;3.97;;;14.40;60.70;;;;;;5026231;28;20028;-64
2021/11/04 08:12:33;;;;;;;5.43;3.55;;;15.40;58.50;;;;;;5030133;28;20504;-64
2021/11/04 08:15:00;;;;;;;5.57;3.60;;;16.20;56.40;;;;;;5029029;28;20033;-64
2021/11/04 08:17:26;;;;;;;6.88;3.30;;;16.80;54.90;;;;;;5029830;28;20030;-65
2021/11/04 08:19:52;;;;;;;6.47;3.50;;;15.80;55.20;;;;;;5030025;28;20021;-64
2021/11/04 08:22:18;;;;;;;6.72;3.60;;;14.90;57.10;;;;;;5028625;28;20044;-64
2021/11/04 08:24:44;;;;;;;8.57;3.75;;;14.40;58.00;;;;;;5028705;28;20048;-64
2021/11/04 08:27:10;;;;;;;8.63;3.80;;;13.90;59.00;;;;;;5030046;28;20029;-64
2021/11/04 08:29:36;;;;;;;7.15;3.78;;;13.90;59.50;;;;;;5030551;28;20030;-64
2021/11/04 08:32:02;;;;;;;7.03;4.15;;;14.10;59.30;;;;;;5031078;28;20432;-64
2021/11/04 08:34:28;;;;;;;7.35;4.10;;;16.10;56.30;;;;;;5028655;28;20068;-63
2021/11/04 08:36:54;;;;;;;6.65;3.80;;;17.50;53.30;;;;;;5030354;28;20053;-64
2021/11/04 08:39:20;;;;;;;8.63;5.03;;;18.00;52.20;;;;;;5029620;28;20070;-64
2021/11/04 08:41:45;;;;;;;11.13;5.55;;;19.40;49.80;;;;;;5028934;28;20087;-64
2021/11/04 08:44:11;;;;;;;11.23;7.43;;;20.70;47.60;;;;;;5029349;28;20071;-65
2021/11/04 08:46:37;;;;;;;10.70;9.80;;;21.60;45.80;;;;;;5024210;28;20022;-65
2021/11/04 08:49:03;;;;;;;15.80;14.40;;;22.30;44.20;;;;;;5028683;28;20716;-64
2021/11/04 08:51:29;;;;;;;19.15;17.67;;;22.80;42.80;;;;;;5021436;28;20029;-66
2021/11/04 08:53:57;;;;;;;1999.90;999.90;;;23.60;41.40;;;;;;5029395;28;20166;-66
2021/11/04 08:56:22;;;;;;;1999.90;999.90;;;24.40;39.50;;;;;;5013554;28;20022;-64
2021/11/04 08:58:48;;;;;;;10.13;9.27;;;25.10;38.10;;;;;;5030701;28;20554;-64
2021/11/04 09:01:15;;;;;;;25.85;24.13;;;25.90;36.50;;;;;;5027075;28;20432;-64
2021/11/04 09:03:41;;;;;;;9.35;8.30;;;25.40;36.30;;;;;;5029034;28;20056;-64
2021/11/04 09:06:07;;;;;;;8.85;7.45;;;26.30;34.90;;;;;;5029466;28;20619;-64
2021/11/04 09:08:33;;;;;;;7.55;6.22;;;27.00;33.50;;;;;;5023778;28;20117;-64
2021/11/04 09:10:58;;;;;;;8.40;6.35;;;27.50;32.80;;;;;;5029796;28;20032;-64
2021/11/04 09:13:24;;;;;;;9.30;5.30;;;28.00;31.90;;;;;;5021325;28;20116;-64
2021/11/04 09:15:50;;;;;;;7.63;5.53;;;28.50;31.00;;;;;;5028483;28;20033;-64
2021/11/04 09:18:18;;;;;;;8.43;6.10;;;28.90;30.30;;;;;;5028870;28;20033;-64
2021/11/04 09:20:43;;;;;;;12.40;11.23;;;29.30;29.60;;;;;;5029002;28;20492;-64
2021/11/04 09:23:09;;;;;;;20.38;18.67;;;29.70;29.10;;;;;;5013342;28;20045;-64
2021/11/04 09:25:36;;;;;;;1999.90;999.90;;;30.10;28.70;;;;;;5024022;28;20040;-64
2021/11/04 09:28:02;;;;;;;1999.90;999.90;;;30.30;28.00;;;;;;5029272;28;20030;-64
2021/11/04 09:30:29;;;;;;;1999.90;999.90;;;30.60;27.80;;;;;;5029115;28;20026;-64
2021/11/04 09:32:55;;;;;;;1999.90;999.90;;;31.00;27.60;;;;;;5027725;28;20492;-64
2021/11/04 09:35:22;;;;;;;11.68;10.65;;;31.40;26.40;;;;;;5028673;28;20045;-64
2021/11/04 09:37:48;;;;;;;11.20;10.07;;;30.90;26.40;;;;;;5026513;28;20076;-64
2021/11/04 09:40:17;;;;;;;12.18;10.43;;;31.20;26.50;;;;;;5029015;28;20068;-64
2021/11/04 09:42:47;;;;;;;10.68;9.57;;;31.50;26.60;;;;;;5028975;28;20025;-63
2021/11/04 09:45:13;;;;;;;;;;;31.70;26.20;;;;;;5028851;28;20025;-64
2021/11/04 09:47:39;;;;;;;9.30;8.20;;;31.10;26.40;;;;;;5027836;28;19917;-64
2021/11/04 09:50:23;;;;;;;17.70;15.93;;;28.50;28.00;;;;;;5029957;28;20057;-64
2021/11/04 09:52:55;;;;;;;8.25;1.77;;;26.90;30.20;;;;;;5029508;28;20033;-64
2021/11/04 09:55:24;;;;;;;5.25;1.80;;;26.30;31.10;;;;;;5028849;28;20562;-64
2021/11/04 09:57:52;;;;;;;17.92;16.13;;;26.80;30.50;;;;;;5028944;28;20477;-63
2021/11/04 10:00:19;;;;;;;8.70;3.10;;;26.10;30.50;;;;;;5027151;28;20127;-63
2021/11/04 10:02:46;;;;;;;10.15;5.05;;;25.00;32.10;;;;;;5026253;28;20041;-63
2021/11/04 10:05:15;;;;;;;5.72;1.90;;;24.00;33.30;;;;;;5025229;28;20382;-63
2021/11/04 10:07:47;;;;;;;5.80;1.60;;;23.10;35.20;;;;;;5028507;28;20029;-63
2021/11/04 10:10:15;;;;;;;6.95;2.38;;;22.20;37.00;;;;;;5019700;28;20482;-62
2021/11/04 10:12:56;;;;;;;10.23;7.18;;;22.10;37.70;;;;;;5017658;28;20052;-62
2021/11/04 10:15:23;;;;;;;7.20;6.50;;;25.30;34.00;;;;;;5021952;28;20038;-63
2021/11/04 10:17:49;;;;;;;8.68;6.65;;;26.80;31.50;;;;;;5028003;28;20036;-63
2021/11/04 10:20:18;;;;;;;7.90;7.15;;;28.80;28.70;;;;;;5013166;28;20026;-63
2021/11/04 10:23:01;;;;;;;8.67;7.60;;;30.50;27.40;;;;;;5027236;28;20504;-63
2021/11/04 10:25:27;;;;;;;5.38;3.55;;;31.90;25.80;;;;;;5031157;28;20424;-63
2021/11/04 10:27:53;;;;;;;5.10;2.50;;;33.00;24.50;;;;;;5028176;28;20440;-63
2021/11/04 10:30:42;;;;;;;5.80;2.70;;;33.80;23.30;;;;;;5031309;28;20029;-63
2021/11/04 10:33:23;;;;;;;6.18;4.25;;;34.50;22.50;;;;;;5032037;28;20305;-63
2021/11/04 10:36:14;;;;;;;7.78;6.47;;;35.20;22.00;;;;;;5018384;28;20075;-64
2021/11/04 10:38:48;;;;;;;4.90;3.00;;;35.70;21.00;;;;;;5016763;28;20029;-63
2021/11/04 10:41:20;;;;;;;7.35;2.05;;;36.00;21.30;;;;;;5032176;28;20021;-64
2021/11/04 10:43:51;;;;;;;4.20;1.45;;;36.90;21.50;;;;;;5028369;28;20131;-64
2021/11/04 10:46:18;;;;;;;4.72;2.00;;;36.40;21.10;;;;;;5030263;28;20075;-63
2021/11/04 10:48:46;;;;;;;5.25;1.60;;;37.20;20.80;;;;;;5026697;28;20033;-63
2021/11/04 10:51:19;;;;;;;4.97;1.60;;;37.90;20.20;;;;;;5027993;28;20128;-63
2021/11/04 10:54:02;;;;;;;4.63;1.40;;;38.60;19.80;;;;;;5017377;28;20113;-64
2021/11/04 10:56:28;;;;;;;5.88;1.80;;;38.70;18.90;;;;;;5031710;28;20493;-63
2021/11/04 10:59:01;;;;;;;4.22;1.50;;;39.20;18.80;;;;;;5018777;28;20516;-63
2021/11/04 11:01:41;;;;;;;4.78;1.60;;;38.60;19.20;;;;;;5019565;28;20034;-64
2021/11/04 11:04:09;;;;;;;4.28;1.40;;;39.10;18.50;;;;;;5027771;28;20083;-64
2021/11/04 11:06:46;;;;;;;5.10;1.35;;;39.90;18.40;;;;;;5029592;28;20632;-64
2021/11/04 11:09:17;;;;;;;9.23;5.38;;;37.40;18.10;;;;;;5031034;28;20025;-64
2021/11/04 11:11:48;;;;;;;12.32;2.47;;;37.70;19.60;;;;;;5027848;28;20029;-64
2021/11/04 11:14:15;;;;;;;5.63;1.67;;;37.50;18.70;;;;;;5027697;28;20045;-64
2021/11/04 11:16:52;;;;;;;3.75;1.27;;;38.90;18.60;;;;;;5031099;28;20152;-64
2021/11/04 11:19:27;;;;;;;6.07;1.70;;;39.80;18.20;;;;;;5021679;28;20428;-64
2021/11/04 11:21:53;;;;;;;4.22;1.55;;;40.20;17.70;;;;;;5030713;28;20488;-64
2021/11/04 11:24:31;;;;;;;6.65;1.42;;;40.40;17.40;;;;;;5030815;28;20384;-64
2021/11/04 11:26:59;;;;;;;4.22;1.10;;;37.60;16.70;;;;;;5031179;28;20492;-64
2021/11/04 11:29:24;;;;;;;4.88;1.10;;;36.40;19.00;;;;;;5026025;28;20021;-64
2021/11/04 11:31:54;;;;;;;3.42;1.10;;;36.40;19.70;;;;;;5031341;28;20040;-64
2021/11/04 11:34:24;;;;;;;4.22;1.08;;;37.90;18.70;;;;;;5029736;28;20033;-63
2021/11/04 11:37:12;;;;;;;6.80;2.80;;;37.00;18.30;;;;;;5025314;28;20401;-63
2021/11/04 11:39:49;;;;;;;3.90;1.20;;;36.50;19.60;;;;;;5026340;28;20489;-63
2021/11/04 11:42:25;;;;;;;5.95;3.05;;;34.90;18.60;;;;;;5020596;28;20022;-64
2021/11/04 11:45:02;;;;;;;8.27;6.95;;;33.20;20.90;;;;;;5031250;28;20451;-64
2021/11/04 11:47:28;;;;;;;9.93;8.18;;;31.80;20.40;;;;;;5028248;28;20037;-64
2021/11/04 11:50:15;;;;;;;6.78;5.15;;;29.70;22.30;;;;;;5025662;28;20037;-64
2021/11/04 11:52:42;;;;;;;10.93;9.82;;;28.10;23.60;;;;;;5030815;28;20038;-64
2021/11/04 11:55:14;;;;;;;10.02;8.27;;;26.10;25.70;;;;;;5029779;28;20029;-64
2021/11/04 11:57:41;;;;;;;4.63;1.75;;;25.80;26.80;;;;;;5028575;28;20374;-64
2021/11/04 12:00:08;;;;;;;6.80;4.13;;;28.60;25.70;;;;;;5030210;28;20037;-64
2021/11/04 12:02:54;;;;;;;6.25;3.22;;;28.00;26.00;;;;;;5029638;28;20050;-64
2021/11/04 12:05:41;;;;;;;2.90;0.85;;;31.60;24.00;;;;;;5028291;28;20088;-65
2021/11/04 12:08:13;;;;;;;3.67;0.80;;;32.40;23.30;;;;;;5026007;28;20133;-65
2021/11/04 12:10:43;;;;;;;9.52;8.40;;;34.20;21.50;;;;;;5025970;28;20536;-64
2021/11/04 12:13:48;;;;;;;8.77;7.13;;;35.00;20.10;;;;;;5028058;28;20057;-65
2021/11/04 12:16:17;;;;;;;4.80;2.45;;;36.40;18.70;;;;;;5025530;28;20041;-65
2021/11/04 12:18:50;;;;;;;8.68;5.72;;;37.80;18.40;;;;;;5029639;28;20022;-65
2021/11/04 12:21:34;;;;;;;5.15;2.10;;;35.90;18.10;;;;;;5023955;28;20038;-65
2021/11/04 12:24:07;;;;;;;3.55;0.95;;;32.80;20.00;;;;;;5029645;28;20036;-64
2021/11/04 12:26:38;;;;;;;3.72;1.08;;;31.70;22.50;;;;;;5028875;28;20032;-65
2021/11/04 12:29:13;;;;;;;3.55;0.80;;;34.30;21.10;;;;;;5027534;28;20037;-65
2021/11/04 12:31:41;;;;;;;4.72;1.38;;;36.30;19.70;;;;;;5023307;28;20064;-65
2021/11/04 12:34:19;;;;;;;4.35;1.60;;;37.80;18.30;;;;;;5025082;28;20520;-65
2021/11/04 12:36:45;;;;;;;3.90;0.80;;;38.40;17.10;;;;;;5028941;28;20370;-65
2021/11/04 12:39:31;;;;;;;4.22;0.80;;;38.60;17.60;;;;;;5028892;28;20037;-65
2021/11/04 12:41:59;;;;;;;2.88;0.65;;;36.00;17.70;;;;;;5027386;28;20091;-64
2021/11/04 12:44:26;;;;;;;5.35;1.00;;;33.70;19.40;;;;;;5027811;28;20032;-64
2021/11/04 12:46:53;;;;;;;3.58;0.70;;;32.10;19.80;;;;;;5030942;28;20033;-63
2021/11/04 12:49:28;;;;;;;3.17;0.82;;;33.90;20.90;;;;;;5028389;28;20140;-64
2021/11/04 12:51:58;;;;;;;3.35;0.70;;;35.70;19.60;;;;;;5029117;28;20136;-64
2021/11/04 12:54:39;;;;;;;3.55;0.80;;;37.00;18.80;;;;;;5028433;28;20029;-63
2021/11/04 12:57:13;;;;;;;4.30;0.85;;;37.30;18.10;;;;;;5027684;28;20037;-63